Kivalina Airport Kivalina US
ICAO: PAVL
IATA:
Category: Medium
Scheduled Services:

Elevation: 13 ft
TransAlt. 18000 ft.

Airport Communications:
ANCHORAGE CNTR:119.2
ASOS:135.8
CTAF/UNICOM:122.8
KOTZEBUE RDO:122.55

PAVL Zoom In..

If you have problems with the map follow the link
https://www.worldairports.se/pages/airport.php?
ICAO=PAVL

Runways:

(A) RW 12 length 3000 ft width 60 ft
---- / hdg 122

(B) RW 30 length 3000 ft width 60 ft
---- / hdg 302

Location; PAVL
Day. 18 / Time. 07.53 Zulu
* Altimeter: 29.67
* Temperature: -03° c. -26.6°f.
* Wind from: 010° Speed 19 kn.
Dewpoint: -06° c.
Visibility: 9 Statute Miles.
Clouds: Clear (automated report).

PAVL 180753Z AUTO 01019KT 9SM CLR M03/M06 A2967 RMK AO2 SLP047 T10331061 TSNO


Wind From 010°
Speed 19 kn.

 
 
jpsmedia.com for Web Design worldairports.se 2018   terms of use